createdAt,value
2022-12-18T00:01:38.102Z,67.87
2022-12-18T00:04:16.603Z,67.57
2022-12-18T00:06:44.982Z,67.47
2022-12-18T00:09:13.843Z,66.68
2022-12-18T00:11:43.765Z,66.71
2022-12-18T00:14:15.223Z,66.69
2022-12-18T00:16:47.612Z,66.87
2022-12-18T00:19:17.303Z,66.92
2022-12-18T00:21:46.303Z,66.67
2022-12-18T00:24:14.902Z,66.63
2022-12-18T00:26:43.084Z,66.66
2022-12-18T00:29:16.193Z,66.76
2022-12-18T00:31:45.141Z,67.05
2022-12-18T00:34:14.929Z,66.90
2022-12-18T00:36:44.195Z,67.22
2022-12-18T00:39:13.683Z,67.51
2022-12-18T00:42:00.641Z,67.21
2022-12-18T00:44:28.960Z,66.94
2022-12-18T00:46:57.510Z,66.08
2022-12-18T00:49:25.895Z,66.60
2022-12-18T00:51:54.106Z,66.13
2022-12-18T00:54:22.581Z,66.02
2022-12-18T00:56:51.039Z,66.32
2022-12-18T00:59:20.518Z,66.62
2022-12-18T01:01:49.356Z,66.32
2022-12-18T01:04:17.936Z,66.43
2022-12-18T01:06:46.338Z,65.91
2022-12-18T01:09:15.479Z,64.92
2022-12-18T01:11:43.983Z,64.53
2022-12-18T01:14:12.664Z,64.28
2022-12-18T01:16:41.299Z,65.67
2022-12-18T01:19:09.748Z,66.22
2022-12-18T01:21:38.727Z,65.74
2022-12-18T01:24:08.399Z,64.93
2022-12-18T01:26:36.614Z,64.24
2022-12-18T01:29:05.237Z,63.66
2022-12-18T01:31:35.786Z,64.29
2022-12-18T01:34:06.528Z,65.17
2022-12-18T01:36:38.614Z,64.69
2022-12-18T01:39:12.719Z,64.00
2022-12-18T01:42:00.465Z,63.79
2022-12-18T01:45:09.103Z,63.62
2022-12-18T01:47:55.030Z,63.61
2022-12-18T01:50:31.902Z,63.24
2022-12-18T01:53:25.395Z,63.92
2022-12-18T01:55:59.410Z,64.61
2022-12-18T01:59:04.228Z,64.73
2022-12-18T02:01:34.940Z,65.00
2022-12-18T02:04:27.147Z,65.15
2022-12-18T02:07:25.323Z,65.10
2022-12-18T02:10:08.200Z,64.63
2022-12-18T02:12:54.110Z,65.02
2022-12-18T02:16:11.154Z,64.95
2022-12-18T02:18:49.523Z,64.41
2022-12-18T02:21:37.517Z,63.84
2022-12-18T02:24:30.272Z,63.48
2022-12-18T02:27:09.450Z,63.96
2022-12-18T02:29:57.903Z,64.44
2022-12-18T02:32:45.089Z,64.63
2022-12-18T02:35:21.060Z,64.26
2022-12-18T02:37:50.310Z,63.83
2022-12-18T02:40:21.223Z,64.08
2022-12-18T02:42:49.577Z,64.40
2022-12-18T02:45:18.535Z,64.61
2022-12-18T02:47:51.322Z,65.30
2022-12-18T02:50:46.846Z,65.97
2022-12-18T02:53:57.453Z,66.23
2022-12-18T02:56:53.717Z,66.56
2022-12-18T02:59:58.245Z,67.72
2022-12-18T03:02:53.850Z,68.26
2022-12-18T03:06:06.653Z,68.92
2022-12-18T03:08:44.089Z,69.22
2022-12-18T03:11:15.635Z,69.12
2022-12-18T03:13:57.976Z,69.30
2022-12-18T03:16:32.857Z,69.04
2022-12-18T03:19:19.527Z,69.34
2022-12-18T03:21:57.280Z,69.23
2022-12-18T03:24:30.566Z,68.93
2022-12-18T03:27:07.930Z,69.20
2022-12-18T03:30:09.507Z,69.38
2022-12-18T03:33:00.267Z,69.53
2022-12-18T03:35:40.512Z,69.34
2022-12-18T03:38:10.883Z,69.24
2022-12-18T03:41:15.154Z,69.25
2022-12-18T03:44:02.339Z,69.18
2022-12-18T03:46:47.463Z,69.49
2022-12-18T03:49:49.680Z,69.74
2022-12-18T03:53:15.100Z,69.39
2022-12-18T03:55:45.398Z,69.16
2022-12-18T03:58:21.031Z,69.24
2022-12-18T04:00:54.133Z,69.38
2022-12-18T04:03:26.662Z,69.31
2022-12-18T04:05:59.316Z,68.88
2022-12-18T04:08:28.697Z,68.89
2022-12-18T04:10:57.591Z,68.87
2022-12-18T04:13:39.560Z,69.05
2022-12-18T04:16:08.775Z,68.88
2022-12-18T04:18:37.317Z,68.17
2022-12-18T04:21:06.182Z,68.26
2022-12-18T04:23:34.659Z,68.15
2022-12-18T04:26:03.094Z,67.90
2022-12-18T04:28:31.403Z,67.98
2022-12-18T04:30:59.551Z,68.00
2022-12-18T04:33:27.919Z,68.02
2022-12-18T04:35:56.201Z,67.52
2022-12-18T04:38:24.447Z,67.07
2022-12-18T04:40:52.780Z,67.09
2022-12-18T04:43:21.424Z,66.88
2022-12-18T04:45:52.520Z,66.93
2022-12-18T04:48:21.784Z,66.31
2022-12-18T04:50:50.119Z,66.37
2022-12-18T04:53:18.815Z,66.64
2022-12-18T04:55:47.162Z,66.85
2022-12-18T04:58:15.791Z,66.93
2022-12-18T05:00:44.142Z,67.07
2022-12-18T05:03:12.470Z,67.40
2022-12-18T05:05:40.889Z,66.78
2022-12-18T05:08:09.594Z,66.83
2022-12-18T05:10:39.308Z,66.56
2022-12-18T05:13:07.965Z,65.93
2022-12-18T05:15:36.471Z,65.93
2022-12-18T05:18:05.888Z,66.32
2022-12-18T05:20:34.180Z,65.98
2022-12-18T05:23:02.774Z,65.80
2022-12-18T05:25:31.105Z,66.00
2022-12-18T05:27:59.541Z,65.26
2022-12-18T05:30:29.073Z,65.37
2022-12-18T05:32:57.417Z,65.68
2022-12-18T05:35:26.106Z,66.12
2022-12-18T05:37:54.540Z,66.13
2022-12-18T05:40:22.847Z,66.22
2022-12-18T05:42:51.478Z,65.86
2022-12-18T05:45:19.857Z,65.79
2022-12-18T05:47:48.206Z,65.88
2022-12-18T05:50:16.825Z,65.76
2022-12-18T05:52:47.896Z,65.41
2022-12-18T05:55:16.272Z,65.49
2022-12-18T05:57:45.407Z,65.72
2022-12-18T06:00:15.247Z,65.66
2022-12-18T06:02:43.593Z,65.77
2022-12-18T06:05:12.375Z,65.46
2022-12-18T06:07:40.723Z,65.83
2022-12-18T06:10:09.740Z,65.20
2022-12-18T06:12:37.984Z,65.50
2022-12-18T06:15:07.844Z,65.73
2022-12-18T06:17:37.143Z,65.56
2022-12-18T06:20:08.197Z,65.13
2022-12-18T06:22:36.462Z,64.45
2022-12-18T06:25:05.793Z,64.82
2022-12-18T06:27:35.156Z,65.13
2022-12-18T06:30:04.209Z,65.08
2022-12-18T06:32:32.932Z,65.21
2022-12-18T06:35:01.381Z,64.55
2022-12-18T06:37:29.734Z,63.94
2022-12-18T06:39:58.069Z,64.37
2022-12-18T06:42:29.730Z,64.64
2022-12-18T06:44:58.057Z,64.52
2022-12-18T06:47:26.611Z,63.83
2022-12-18T06:49:57.777Z,64.59
2022-12-18T06:52:26.026Z,64.86
2022-12-18T06:54:54.247Z,64.90
2022-12-18T06:57:22.548Z,64.83
2022-12-18T06:59:50.790Z,65.30
2022-12-18T07:02:19.039Z,65.17
2022-12-18T07:04:47.306Z,65.24
2022-12-18T07:07:15.455Z,65.70
2022-12-18T07:09:43.601Z,65.62
2022-12-18T07:12:12.905Z,65.76
2022-12-18T07:14:41.470Z,65.71
2022-12-18T07:17:10.199Z,65.52
2022-12-18T07:19:38.650Z,66.05
2022-12-18T07:22:07.091Z,66.71
2022-12-18T07:24:36.412Z,66.91
2022-12-18T07:27:05.111Z,67.42
2022-12-18T07:29:36.475Z,67.63
2022-12-18T07:32:05.000Z,67.54
2022-12-18T07:34:33.517Z,68.14
2022-12-18T07:37:01.690Z,68.39
2022-12-18T07:39:30.034Z,68.33
2022-12-18T07:42:17.122Z,69.02
2022-12-18T07:44:45.528Z,69.18
2022-12-18T07:47:13.812Z,68.92
2022-12-18T07:49:42.082Z,68.64
2022-12-18T07:52:10.886Z,68.77
2022-12-18T07:54:39.855Z,68.92
2022-12-18T07:57:16.557Z,68.73
2022-12-18T07:59:57.659Z,69.05
2022-12-18T08:02:26.272Z,68.69
2022-12-18T08:04:55.250Z,69.21
2022-12-18T08:07:23.611Z,70.75
2022-12-18T08:09:52.084Z,71.32
2022-12-18T08:12:20.372Z,72.04
2022-12-18T08:14:48.829Z,72.61
2022-12-18T08:17:17.569Z,72.43
2022-12-18T08:19:45.910Z,72.05
2022-12-18T08:22:16.968Z,71.78
2022-12-18T08:24:45.331Z,71.71
2022-12-18T08:27:28.963Z,71.53
2022-12-18T08:29:59.239Z,71.19
2022-12-18T08:32:29.384Z,70.94
2022-12-18T08:34:58.582Z,70.40
2022-12-18T08:37:27.183Z,70.22
2022-12-18T08:39:55.615Z,69.47
2022-12-18T08:42:42.595Z,69.58
2022-12-18T08:45:11.386Z,69.44
2022-12-18T08:47:39.780Z,69.41
2022-12-18T08:50:08.734Z,69.33
2022-12-18T08:52:37.119Z,69.62
2022-12-18T08:55:06.588Z,69.59
2022-12-18T08:57:34.948Z,69.32
2022-12-18T09:00:03.379Z,68.72
2022-12-18T09:02:31.891Z,68.55
2022-12-18T09:05:00.422Z,68.63
2022-12-18T09:07:28.886Z,68.88
2022-12-18T09:09:57.213Z,69.26
2022-12-18T09:12:25.582Z,69.42
2022-12-18T09:14:53.795Z,69.42
2022-12-18T09:17:22.186Z,69.25
2022-12-18T09:19:50.824Z,69.09
2022-12-18T09:22:19.275Z,69.06
2022-12-18T09:24:47.898Z,69.10
2022-12-18T09:27:16.287Z,68.53
2022-12-18T09:29:44.754Z,68.62
2022-12-18T09:32:15.302Z,68.42
2022-12-18T09:34:47.424Z,68.10
2022-12-18T09:37:15.887Z,68.31
2022-12-18T09:39:44.266Z,68.65
2022-12-18T09:42:24.539Z,68.22
2022-12-18T09:44:55.843Z,68.09
2022-12-18T09:47:32.238Z,68.54
2022-12-18T09:50:21.831Z,68.52
2022-12-18T09:52:56.951Z,68.11
2022-12-18T09:55:39.245Z,67.67
2022-12-18T09:58:54.051Z,67.26
2022-12-18T10:01:27.076Z,67.38
2022-12-18T10:04:00.607Z,67.50
2022-12-18T10:06:45.119Z,67.65
2022-12-18T10:09:25.640Z,67.54
2022-12-18T10:12:38.412Z,67.73
2022-12-18T10:15:42.045Z,67.50
2022-12-18T10:19:07.550Z,66.95
2022-12-18T10:21:47.610Z,66.75
2022-12-18T10:24:43.816Z,66.67
2022-12-18T10:27:23.553Z,66.61
2022-12-18T10:29:52.266Z,66.86
2022-12-18T10:32:31.452Z,66.69
2022-12-18T10:35:01.247Z,66.46
2022-12-18T10:37:31.772Z,66.60
2022-12-18T10:40:22.344Z,66.87
2022-12-18T10:43:16.285Z,67.11
2022-12-18T10:49:04.834Z,66.64
2022-12-18T10:51:41.055Z,67.09
2022-12-18T10:54:24.349Z,67.39
2022-12-18T10:56:52.794Z,67.34
2022-12-18T10:59:22.177Z,66.72
2022-12-18T11:02:00.551Z,66.83
2022-12-18T11:04:36.491Z,67.04
2022-12-18T11:07:11.969Z,66.89
2022-12-18T11:09:43.182Z,67.04
2022-12-18T11:12:24.823Z,67.21
2022-12-18T11:14:57.376Z,67.51
2022-12-18T11:17:36.216Z,67.69
2022-12-18T11:20:30.073Z,67.88
2022-12-18T11:23:06.818Z,68.30
2022-12-18T11:25:36.526Z,68.32
2022-12-18T11:28:44.753Z,68.60
2022-12-18T11:31:30.013Z,69.16
2022-12-18T11:36:50.656Z,69.09
2022-12-18T11:40:10.076Z,69.52
2022-12-18T11:43:01.948Z,69.50
2022-12-18T11:45:48.928Z,69.28
2022-12-18T11:48:35.866Z,69.31
2022-12-18T11:51:11.725Z,69.32
2022-12-18T11:53:41.183Z,69.11
2022-12-18T11:56:32.619Z,69.04
2022-12-18T11:59:28.960Z,68.95
2022-12-18T12:02:41.040Z,68.73
2022-12-18T12:05:23.560Z,69.08
2022-12-18T12:08:05.607Z,69.08
2022-12-18T12:11:11.683Z,69.25
2022-12-18T12:14:16.569Z,69.36
2022-12-18T12:17:03.144Z,69.87
2022-12-18T12:19:46.438Z,69.83
2022-12-18T12:23:02.466Z,69.90
2022-12-18T12:26:02.428Z,70.05
2022-12-18T12:29:02.767Z,70.13
2022-12-18T12:31:40.213Z,70.25
2022-12-18T12:34:26.893Z,70.01
2022-12-18T12:37:15.282Z,69.91
2022-12-18T12:39:47.651Z,69.84
2022-12-18T12:42:45.467Z,69.86
2022-12-18T12:45:29.975Z,70.14
2022-12-18T12:48:01.122Z,69.65
2022-12-18T12:50:34.904Z,69.68
2022-12-18T12:53:09.284Z,69.77
2022-12-18T12:55:39.481Z,69.38
2022-12-18T12:58:45.286Z,69.29
2022-12-18T13:01:29.442Z,69.46
2022-12-18T13:04:46.876Z,69.78
2022-12-18T13:07:27.971Z,69.61
2022-12-18T13:10:25.634Z,69.80
2022-12-18T13:13:16.507Z,69.52
2022-12-18T13:16:09.739Z,69.12
2022-12-18T13:18:40.112Z,69.54
2022-12-18T13:21:28.928Z,69.23
2022-12-18T13:23:58.885Z,69.04
2022-12-18T13:26:35.842Z,68.86
2022-12-18T13:29:06.133Z,68.72
2022-12-18T13:31:44.104Z,68.62
2022-12-18T13:34:26.864Z,68.94
2022-12-18T13:37:18.340Z,69.01
2022-12-18T13:39:46.500Z,69.05
2022-12-18T13:42:35.508Z,68.35
2022-12-18T13:45:23.660Z,68.17
2022-12-18T13:47:52.460Z,68.38
2022-12-18T13:50:33.946Z,68.58
2022-12-18T13:53:06.844Z,68.45
2022-12-18T13:55:36.057Z,68.80
2022-12-18T13:58:08.488Z,68.68
2022-12-18T14:00:37.101Z,68.99
2022-12-18T14:03:30.436Z,69.19
2022-12-18T14:06:07.208Z,69.21
2022-12-18T14:08:46.092Z,69.50
2022-12-18T14:11:26.452Z,69.48
2022-12-18T14:13:55.272Z,69.44
2022-12-18T14:16:24.679Z,69.41
2022-12-18T14:19:04.102Z,69.30
2022-12-18T14:21:51.908Z,69.37
2022-12-18T14:24:22.969Z,69.11
2022-12-18T14:26:52.495Z,68.91
2022-12-18T14:29:30.003Z,68.80
2022-12-18T14:32:18.992Z,68.71
2022-12-18T14:34:55.891Z,68.56
2022-12-18T14:37:28.218Z,69.23
2022-12-18T14:40:10.564Z,69.12
2022-12-18T14:42:39.666Z,68.89
2022-12-18T14:45:42.720Z,68.71
2022-12-18T14:48:23.847Z,68.66
2022-12-18T14:51:08.178Z,68.47
2022-12-18T14:53:53.742Z,68.66
2022-12-18T14:56:26.004Z,68.60
2022-12-18T14:59:23.848Z,68.08
2022-12-18T15:02:21.425Z,67.57
2022-12-18T15:05:00.734Z,67.41
2022-12-18T15:07:29.263Z,67.40
2022-12-18T15:10:16.238Z,67.65
2022-12-18T15:12:49.836Z,67.95
2022-12-18T15:15:39.316Z,67.33
2022-12-18T15:18:21.274Z,67.08
2022-12-18T15:21:10.965Z,67.41
2022-12-18T15:23:47.368Z,67.14
2022-12-18T15:26:19.218Z,66.74
2022-12-18T15:28:59.855Z,66.99
2022-12-18T15:31:37.594Z,67.00
2022-12-18T15:34:25.367Z,67.15
2022-12-18T15:36:53.798Z,67.37
2022-12-18T15:39:21.912Z,67.08
2022-12-18T15:42:08.671Z,66.91
2022-12-18T15:44:37.816Z,67.07
2022-12-18T15:47:14.351Z,65.96
2022-12-18T15:49:42.806Z,65.80
2022-12-18T15:52:15.222Z,65.93
2022-12-18T15:55:01.610Z,66.42
2022-12-18T15:57:29.927Z,66.54
2022-12-18T15:59:59.475Z,66.38
2022-12-18T16:02:29.843Z,66.80
2022-12-18T16:04:58.421Z,66.94
2022-12-18T16:07:29.174Z,66.57
2022-12-18T16:10:01.256Z,67.11
2022-12-18T16:12:30.853Z,67.09
2022-12-18T16:14:59.038Z,66.80
2022-12-18T16:17:27.304Z,67.20
2022-12-18T16:19:55.560Z,67.05
2022-12-18T16:22:29.533Z,67.38
2022-12-18T16:24:59.426Z,67.63
2022-12-18T16:27:27.646Z,67.43
2022-12-18T16:29:56.187Z,67.12
2022-12-18T16:32:24.901Z,66.92
2022-12-18T16:34:53.307Z,67.03
2022-12-18T16:37:21.612Z,66.83
2022-12-18T16:39:49.879Z,66.90
2022-12-18T16:42:21.320Z,66.90
2022-12-18T16:44:51.087Z,67.09
2022-12-18T16:47:20.290Z,66.96
2022-12-18T16:49:52.001Z,66.76
2022-12-18T16:52:21.413Z,66.82
2022-12-18T16:54:49.903Z,67.14
2022-12-18T16:57:25.386Z,67.16
2022-12-18T16:59:55.482Z,66.96
2022-12-18T17:02:28.951Z,66.79
2022-12-18T17:04:59.448Z,66.44
2022-12-18T17:07:29.198Z,66.54
2022-12-18T17:09:57.893Z,66.61
2022-12-18T17:12:27.070Z,66.86
2022-12-18T17:14:55.604Z,66.93
2022-12-18T17:17:24.276Z,67.00
2022-12-18T17:19:53.723Z,67.11
2022-12-18T17:22:26.289Z,67.15
2022-12-18T17:24:54.503Z,66.96
2022-12-18T17:27:22.690Z,66.84
2022-12-18T17:29:50.934Z,67.12
2022-12-18T17:32:19.642Z,66.92
2022-12-18T17:34:47.988Z,66.44
2022-12-18T17:37:16.784Z,66.33
2022-12-18T17:39:45.805Z,65.62
2022-12-18T17:42:15.928Z,65.50
2022-12-18T17:44:45.778Z,65.72
2022-12-18T17:47:15.125Z,65.94
2022-12-18T17:49:43.379Z,65.18
2022-12-18T17:52:12.011Z,64.70
2022-12-18T17:54:42.431Z,64.76
2022-12-18T17:57:11.239Z,64.21
2022-12-18T17:59:39.571Z,63.61
2022-12-18T18:02:10.564Z,64.62
2022-12-18T18:07:25.911Z,64.32
2022-12-18T18:09:54.848Z,63.94
2022-12-18T18:12:42.159Z,63.87
2022-12-18T18:15:11.785Z,63.75
2022-12-18T18:17:40.664Z,63.86
2022-12-18T18:20:10.201Z,63.86
2022-12-18T18:22:39.710Z,63.87
2022-12-18T18:25:12.476Z,64.15
2022-12-18T18:27:42.230Z,64.08
2022-12-18T18:30:16.831Z,64.79
2022-12-18T18:32:45.915Z,64.89
2022-12-18T18:35:45.168Z,65.17
2022-12-18T18:38:06.325Z,65.07
2022-12-18T18:40:35.354Z,64.42
2022-12-18T18:43:04.900Z,64.78
2022-12-18T18:45:35.282Z,64.95
2022-12-18T18:48:13.272Z,64.56
2022-12-18T18:50:45.067Z,64.32
2022-12-18T18:53:13.934Z,64.28
2022-12-18T18:55:43.199Z,64.31
2022-12-18T18:58:12.260Z,64.22
2022-12-18T19:00:41.525Z,64.11
2022-12-18T19:03:10.602Z,64.11
2022-12-18T19:05:42.956Z,64.31
2022-12-18T19:08:13.461Z,64.18
2022-12-18T19:10:43.063Z,64.11
2022-12-18T19:13:24.995Z,63.94
2022-12-18T19:15:57.879Z,63.86
2022-12-18T19:18:28.002Z,64.13
2022-12-18T19:21:00.967Z,64.15
2022-12-18T19:23:32.271Z,63.70
2022-12-18T19:28:56.270Z,62.99
2022-12-18T19:31:29.208Z,62.87
2022-12-18T19:34:01.693Z,62.71
2022-12-18T19:36:32.310Z,61.93
2022-12-18T19:39:06.142Z,62.30
2022-12-18T19:41:35.259Z,60.99
2022-12-18T19:44:08.331Z,60.69
2022-12-18T19:46:41.811Z,60.65
2022-12-18T19:49:18.199Z,60.57
2022-12-18T19:51:47.685Z,60.51
2022-12-18T19:54:19.430Z,60.20
2022-12-18T19:56:48.680Z,59.82
2022-12-18T19:59:17.911Z,58.90
2022-12-18T20:01:47.333Z,59.36
2022-12-18T20:04:17.142Z,59.11
2022-12-18T20:06:52.847Z,59.36
2022-12-18T20:09:23.017Z,58.90
2022-12-18T20:11:52.716Z,58.79
2022-12-18T20:14:23.419Z,59.26
2022-12-18T20:16:53.973Z,58.44
2022-12-18T20:19:23.856Z,58.39
2022-12-18T20:21:53.091Z,59.02
2022-12-18T20:24:22.143Z,59.32
2022-12-18T20:26:51.146Z,58.95
2022-12-18T20:29:20.127Z,58.58
2022-12-18T20:31:48.998Z,57.83
2022-12-18T20:34:18.333Z,58.11
2022-12-18T20:36:48.288Z,58.78
2022-12-18T20:39:19.208Z,58.80
2022-12-18T20:41:49.231Z,59.07
2022-12-18T20:44:23.454Z,58.67
2022-12-18T20:47:06.667Z,58.97
2022-12-18T20:49:38.102Z,59.77
2022-12-18T20:52:09.358Z,60.10
2022-12-18T20:54:38.267Z,60.03
2022-12-18T20:57:07.327Z,59.15
2022-12-18T20:59:36.315Z,58.80
2022-12-18T21:02:05.456Z,58.77
2022-12-18T21:04:34.660Z,59.15
2022-12-18T21:07:03.850Z,59.69
2022-12-18T21:09:38.245Z,59.49
2022-12-18T21:12:45.357Z,59.08
2022-12-18T21:15:28.483Z,58.73
2022-12-18T21:17:57.996Z,58.68
2022-12-18T21:20:26.919Z,59.29
2022-12-18T21:22:56.405Z,59.00
2022-12-18T21:25:31.614Z,58.56
2022-12-18T21:28:00.795Z,58.60
2022-12-18T21:30:30.040Z,58.57
2022-12-18T21:32:58.851Z,59.29
2022-12-18T21:35:27.913Z,58.10
2022-12-18T21:37:59.907Z,58.63
2022-12-18T21:40:31.464Z,58.91
2022-12-18T21:43:18.579Z,58.69
2022-12-18T21:45:47.578Z,58.40
2022-12-18T21:48:16.816Z,58.80
2022-12-18T21:50:46.310Z,58.69
2022-12-18T21:53:15.164Z,58.65
2022-12-18T21:55:44.411Z,58.79
2022-12-18T21:58:13.336Z,59.55
2022-12-18T22:00:46.986Z,60.44
2022-12-18T22:03:19.263Z,60.12
2022-12-18T22:05:56.203Z,59.98
2022-12-18T22:08:47.993Z,60.30
2022-12-18T22:11:17.309Z,60.70
2022-12-18T22:13:47.066Z,60.84
2022-12-18T22:16:17.067Z,60.82
2022-12-18T22:18:46.008Z,61.04
2022-12-18T22:21:34.537Z,60.91
2022-12-18T22:24:19.608Z,60.88
2022-12-18T22:26:50.140Z,61.11
2022-12-18T22:29:41.768Z,61.35
2022-12-18T22:32:16.782Z,61.70
2022-12-18T22:34:48.934Z,62.17
2022-12-18T22:37:17.828Z,62.03
2022-12-18T22:39:46.796Z,61.76
2022-12-18T22:42:15.927Z,61.99
2022-12-18T22:44:44.902Z,62.13
2022-12-18T22:47:13.833Z,62.20
2022-12-18T22:49:42.901Z,62.38
2022-12-18T22:52:12.218Z,62.32
2022-12-18T22:54:42.166Z,62.22
2022-12-18T22:57:11.458Z,61.90
2022-12-18T22:59:41.003Z,61.91
2022-12-18T23:02:10.005Z,62.19
2022-12-18T23:04:38.936Z,61.90
2022-12-18T23:07:08.868Z,61.73
2022-12-18T23:09:40.723Z,61.57
2022-12-18T23:12:15.157Z,61.30
2022-12-18T23:14:44.386Z,61.36
2022-12-18T23:17:13.457Z,61.69
2022-12-18T23:19:48.564Z,61.22
2022-12-18T23:22:19.206Z,61.05
2022-12-18T23:24:48.370Z,61.15
2022-12-18T23:27:17.286Z,61.64
2022-12-18T23:29:46.187Z,61.52
2022-12-18T23:32:16.798Z,60.93
2022-12-18T23:34:45.762Z,61.55
2022-12-18T23:37:35.307Z,60.99
2022-12-18T23:40:04.167Z,59.75
2022-12-18T23:42:32.939Z,59.40
2022-12-18T23:45:15.834Z,59.69
2022-12-18T23:47:48.752Z,60.36
2022-12-18T23:50:22.099Z,60.62
2022-12-18T23:53:00.687Z,60.64
2022-12-18T23:55:40.323Z,60.40
2022-12-18T23:58:18.345Z,60.58
